sensor_id;sensor_type;location;lat;lon;timestamp;P1;durP1;ratioP1;P2;durP2;ratioP2
56171;SDS011;42052;41.634;-0.946;2023-03-20T00:01:11;3.63;;;2.00;;
56171;SDS011;42052;41.634;-0.946;2023-03-20T00:03:58;3.40;;;1.85;;
56171;SDS011;42052;41.634;-0.946;2023-03-20T00:06:44;3.00;;;1.95;;
56171;SDS011;42052;41.634;-0.946;2023-03-20T00:09:31;2.83;;;1.60;;
56171;SDS011;42052;41.634;-0.946;2023-03-20T00:12:17;2.45;;;1.50;;
56171;SDS011;42052;41.634;-0.946;2023-03-20T00:15:22;3.03;;;1.70;;
56171;SDS011;42052;41.634;-0.946;2023-03-20T00:18:15;2.20;;;1.40;;
56171;SDS011;42052;41.634;-0.946;2023-03-20T00:21:16;4.13;;;1.60;;
56171;SDS011;42052;41.634;-0.946;2023-03-20T00:24:03;1.98;;;1.30;;
56171;SDS011;42052;41.634;-0.946;2023-03-20T00:26:50;2.22;;;1.30;;
56171;SDS011;42052;41.634;-0.946;2023-03-20T00:29:37;3.25;;;1.60;;
56171;SDS011;42052;41.634;-0.946;2023-03-20T00:32:23;3.55;;;1.60;;
56171;SDS011;42052;41.634;-0.946;2023-03-20T00:35:20;3.22;;;1.27;;
56171;SDS011;42052;41.634;-0.946;2023-03-20T00:38:08;2.45;;;1.50;;
56171;SDS011;42052;41.634;-0.946;2023-03-20T00:40:54;2.45;;;1.50;;
56171;SDS011;42052;41.634;-0.946;2023-03-20T00:43:40;1.98;;;1.10;;
56171;SDS011;42052;41.634;-0.946;2023-03-20T00:46:28;2.35;;;1.30;;
56171;SDS011;42052;41.634;-0.946;2023-03-20T00:49:18;2.13;;;1.30;;
56171;SDS011;42052;41.634;-0.946;2023-03-20T00:52:09;1.95;;;1.30;;
56171;SDS011;42052;41.634;-0.946;2023-03-20T00:54:57;1.88;;;1.10;;
56171;SDS011;42052;41.634;-0.946;2023-03-20T00:58:04;2.40;;;1.20;;
56171;SDS011;42052;41.634;-0.946;2023-03-20T01:00:50;2.03;;;0.93;;
56171;SDS011;42052;41.634;-0.946;2023-03-20T01:03:36;1.92;;;1.23;;
56171;SDS011;42052;41.634;-0.946;2023-03-20T01:06:23;1.80;;;1.15;;
56171;SDS011;42052;41.634;-0.946;2023-03-20T01:09:10;1.95;;;1.10;;
56171;SDS011;42052;41.634;-0.946;2023-03-20T01:11:57;2.85;;;1.30;;
56171;SDS011;42052;41.634;-0.946;2023-03-20T01:14:45;1.42;;;0.80;;
56171;SDS011;42052;41.634;-0.946;2023-03-20T01:17:36;2.78;;;1.17;;
56171;SDS011;42052;41.634;-0.946;2023-03-20T01:20:23;2.30;;;1.02;;
56171;SDS011;42052;41.634;-0.946;2023-03-20T01:23:12;2.33;;;1.00;;
56171;SDS011;42052;41.634;-0.946;2023-03-20T01:25:58;1.55;;;0.90;;
56171;SDS011;42052;41.634;-0.946;2023-03-20T01:28:44;1.58;;;1.00;;
56171;SDS011;42052;41.634;-0.946;2023-03-20T01:31:31;2.63;;;1.08;;
56171;SDS011;42052;41.634;-0.946;2023-03-20T01:34:17;1.17;;;0.90;;
56171;SDS011;42052;41.634;-0.946;2023-03-20T01:37:08;2.05;;;1.20;;
56171;SDS011;42052;41.634;-0.946;2023-03-20T01:39:58;2.08;;;1.00;;
56171;SDS011;42052;41.634;-0.946;2023-03-20T01:42:44;1.88;;;1.20;;
56171;SDS011;42052;41.634;-0.946;2023-03-20T01:45:34;1.02;;;0.88;;
56171;SDS011;42052;41.634;-0.946;2023-03-20T01:48:22;1.63;;;0.80;;
56171;SDS011;42052;41.634;-0.946;2023-03-20T01:51:12;1.85;;;1.10;;
56171;SDS011;42052;41.634;-0.946;2023-03-20T01:54:03;2.00;;;0.90;;
56171;SDS011;42052;41.634;-0.946;2023-03-20T01:57:00;1.85;;;1.00;;
56171;SDS011;42052;41.634;-0.946;2023-03-20T01:59:57;1.52;;;0.93;;
56171;SDS011;42052;41.634;-0.946;2023-03-20T02:02:51;1.40;;;0.85;;
56171;SDS011;42052;41.634;-0.946;2023-03-20T02:05:39;1.23;;;0.75;;
56171;SDS011;42052;41.634;-0.946;2023-03-20T02:08:28;2.47;;;1.00;;
56171;SDS011;42052;41.634;-0.946;2023-03-20T02:11:17;1.52;;;0.85;;
56171;SDS011;42052;41.634;-0.946;2023-03-20T02:14:06;0.80;;;0.70;;
56171;SDS011;42052;41.634;-0.946;2023-03-20T02:16:54;1.17;;;0.70;;
56171;SDS011;42052;41.634;-0.946;2023-03-20T02:23:08;1.20;;;0.80;;
56171;SDS011;42052;41.634;-0.946;2023-03-20T02:29:11;1.15;;;0.80;;
56171;SDS011;42052;41.634;-0.946;2023-03-20T02:35:33;1.33;;;0.90;;
56171;SDS011;42052;41.634;-0.946;2023-03-20T02:38:33;1.00;;;0.70;;
56171;SDS011;42052;41.634;-0.946;2023-03-20T02:47:22;0.95;;;0.68;;
56171;SDS011;42052;41.634;-0.946;2023-03-20T02:59:45;1.17;;;0.77;;
56171;SDS011;42052;41.634;-0.946;2023-03-20T03:02:19;1.13;;;0.77;;
56171;SDS011;42052;41.634;-0.946;2023-03-20T03:05:12;1.35;;;0.70;;
56171;SDS011;42052;41.634;-0.946;2023-03-20T03:08:03;0.83;;;0.60;;
56171;SDS011;42052;41.634;-0.946;2023-03-20T03:10:56;1.98;;;0.63;;
56171;SDS011;42052;41.634;-0.946;2023-03-20T03:13:47;0.57;;;0.55;;
56171;SDS011;42052;41.634;-0.946;2023-03-20T03:16:36;1.77;;;0.80;;
56171;SDS011;42052;41.634;-0.946;2023-03-20T03:19:25;0.80;;;0.60;;
56171;SDS011;42052;41.634;-0.946;2023-03-20T03:22:14;0.88;;;0.60;;
56171;SDS011;42052;41.634;-0.946;2023-03-20T03:25:01;1.20;;;0.65;;
56171;SDS011;42052;41.634;-0.946;2023-03-20T03:27:48;1.10;;;0.65;;
56171;SDS011;42052;41.634;-0.946;2023-03-20T03:30:41;0.60;;;0.50;;
56171;SDS011;42052;41.634;-0.946;2023-03-20T03:33:31;0.75;;;0.50;;
56171;SDS011;42052;41.634;-0.946;2023-03-20T03:39:23;1.10;;;0.80;;
56171;SDS011;42052;41.634;-0.946;2023-03-20T03:45:19;0.80;;;0.60;;
56171;SDS011;42052;41.634;-0.946;2023-03-20T03:48:17;0.90;;;0.70;;
56171;SDS011;42052;41.634;-0.946;2023-03-20T03:51:07;1.08;;;0.60;;
56171;SDS011;42052;41.634;-0.946;2023-03-20T03:54:03;1.10;;;0.57;;
56171;SDS011;42052;41.634;-0.946;2023-03-20T03:56:53;1.10;;;0.60;;
56171;SDS011;42052;41.634;-0.946;2023-03-20T03:59:45;1.08;;;0.55;;
56171;SDS011;42052;41.634;-0.946;2023-03-20T04:02:35;0.77;;;0.68;;
56171;SDS011;42052;41.634;-0.946;2023-03-20T04:05:22;1.02;;;0.70;;
56171;SDS011;42052;41.634;-0.946;2023-03-20T04:08:12;0.70;;;0.60;;
56171;SDS011;42052;41.634;-0.946;2023-03-20T04:11:00;0.65;;;0.60;;
56171;SDS011;42052;41.634;-0.946;2023-03-20T04:13:47;1.30;;;0.70;;
56171;SDS011;42052;41.634;-0.946;2023-03-20T04:16:35;0.95;;;0.60;;
56171;SDS011;42052;41.634;-0.946;2023-03-20T04:19:21;1.02;;;0.70;;
56171;SDS011;42052;41.634;-0.946;2023-03-20T04:22:07;1.25;;;0.60;;
56171;SDS011;42052;41.634;-0.946;2023-03-20T04:24:53;1.08;;;0.50;;
56171;SDS011;42052;41.634;-0.946;2023-03-20T04:27:39;1.00;;;0.70;;
56171;SDS011;42052;41.634;-0.946;2023-03-20T04:30:25;1.50;;;0.70;;
56171;SDS011;42052;41.634;-0.946;2023-03-20T04:33:11;0.65;;;0.50;;
56171;SDS011;42052;41.634;-0.946;2023-03-20T04:35:58;1.15;;;0.60;;
56171;SDS011;42052;41.634;-0.946;2023-03-20T04:38:44;0.70;;;0.70;;
56171;SDS011;42052;41.634;-0.946;2023-03-20T04:41:30;1.00;;;0.60;;
56171;SDS011;42052;41.634;-0.946;2023-03-20T04:44:16;1.05;;;0.63;;
56171;SDS011;42052;41.634;-0.946;2023-03-20T04:47:02;0.73;;;0.70;;
56171;SDS011;42052;41.634;-0.946;2023-03-20T04:49:48;0.70;;;0.57;;
56171;SDS011;42052;41.634;-0.946;2023-03-20T04:52:35;0.85;;;0.60;;
56171;SDS011;42052;41.634;-0.946;2023-03-20T04:55:21;0.88;;;0.70;;
56171;SDS011;42052;41.634;-0.946;2023-03-20T04:58:07;0.95;;;0.80;;
56171;SDS011;42052;41.634;-0.946;2023-03-20T05:00:53;1.83;;;0.90;;
56171;SDS011;42052;41.634;-0.946;2023-03-20T05:03:40;0.70;;;0.65;;
56171;SDS011;42052;41.634;-0.946;2023-03-20T05:06:26;0.75;;;0.60;;
56171;SDS011;42052;41.634;-0.946;2023-03-20T05:09:12;0.80;;;0.80;;
56171;SDS011;42052;41.634;-0.946;2023-03-20T05:11:59;0.93;;;0.70;;
56171;SDS011;42052;41.634;-0.946;2023-03-20T05:14:45;1.10;;;0.90;;
56171;SDS011;42052;41.634;-0.946;2023-03-20T05:17:31;1.17;;;0.65;;
56171;SDS011;42052;41.634;-0.946;2023-03-20T05:20:18;1.58;;;0.80;;
56171;SDS011;42052;41.634;-0.946;2023-03-20T05:23:04;1.25;;;0.73;;
56171;SDS011;42052;41.634;-0.946;2023-03-20T05:25:50;1.25;;;0.70;;
56171;SDS011;42052;41.634;-0.946;2023-03-20T05:28:36;1.67;;;0.70;;
56171;SDS011;42052;41.634;-0.946;2023-03-20T05:31:23;1.27;;;0.80;;
56171;SDS011;42052;41.634;-0.946;2023-03-20T05:34:09;0.68;;;0.68;;
56171;SDS011;42052;41.634;-0.946;2023-03-20T05:36:55;1.40;;;0.70;;
56171;SDS011;42052;41.634;-0.946;2023-03-20T05:39:41;1.30;;;0.80;;
56171;SDS011;42052;41.634;-0.946;2023-03-20T05:42:27;1.23;;;0.80;;
56171;SDS011;42052;41.634;-0.946;2023-03-20T05:45:13;1.10;;;0.80;;
56171;SDS011;42052;41.634;-0.946;2023-03-20T05:48:00;1.20;;;0.90;;
56171;SDS011;42052;41.634;-0.946;2023-03-20T05:50:46;0.85;;;0.60;;
56171;SDS011;42052;41.634;-0.946;2023-03-20T05:53:32;0.90;;;0.70;;
56171;SDS011;42052;41.634;-0.946;2023-03-20T05:56:18;1.13;;;0.80;;
56171;SDS011;42052;41.634;-0.946;2023-03-20T05:59:04;0.80;;;0.65;;
56171;SDS011;42052;41.634;-0.946;2023-03-20T06:01:50;1.52;;;0.70;;
56171;SDS011;42052;41.634;-0.946;2023-03-20T06:04:37;1.10;;;0.77;;
56171;SDS011;42052;41.634;-0.946;2023-03-20T06:07:23;1.70;;;1.00;;
56171;SDS011;42052;41.634;-0.946;2023-03-20T06:10:10;1.40;;;1.05;;
56171;SDS011;42052;41.634;-0.946;2023-03-20T06:12:56;0.95;;;0.70;;
56171;SDS011;42052;41.634;-0.946;2023-03-20T06:15:45;1.55;;;0.77;;
56171;SDS011;42052;41.634;-0.946;2023-03-20T06:18:31;0.73;;;0.60;;
56171;SDS011;42052;41.634;-0.946;2023-03-20T06:21:17;1.13;;;0.90;;
56171;SDS011;42052;41.634;-0.946;2023-03-20T06:24:03;1.05;;;0.80;;
56171;SDS011;42052;41.634;-0.946;2023-03-20T06:26:49;1.00;;;0.80;;
56171;SDS011;42052;41.634;-0.946;2023-03-20T06:29:35;1.48;;;1.20;;
56171;SDS011;42052;41.634;-0.946;2023-03-20T06:32:22;1.15;;;0.70;;
56171;SDS011;42052;41.634;-0.946;2023-03-20T06:35:08;1.58;;;1.10;;
56171;SDS011;42052;41.634;-0.946;2023-03-20T06:37:54;1.15;;;0.80;;
56171;SDS011;42052;41.634;-0.946;2023-03-20T06:40:40;1.25;;;0.63;;
56171;SDS011;42052;41.634;-0.946;2023-03-20T06:43:27;1.10;;;0.82;;
56171;SDS011;42052;41.634;-0.946;2023-03-20T06:46:13;1.13;;;0.90;;
56171;SDS011;42052;41.634;-0.946;2023-03-20T06:49:00;1.45;;;1.00;;
56171;SDS011;42052;41.634;-0.946;2023-03-20T06:51:46;0.93;;;0.80;;
56171;SDS011;42052;41.634;-0.946;2023-03-20T06:54:32;1.95;;;1.00;;
56171;SDS011;42052;41.634;-0.946;2023-03-20T06:57:18;1.42;;;0.80;;
56171;SDS011;42052;41.634;-0.946;2023-03-20T07:00:05;2.97;;;0.80;;
56171;SDS011;42052;41.634;-0.946;2023-03-20T07:02:52;1.45;;;0.80;;
56171;SDS011;42052;41.634;-0.946;2023-03-20T07:05:38;1.40;;;0.80;;
56171;SDS011;42052;41.634;-0.946;2023-03-20T07:08:24;1.42;;;0.90;;
56171;SDS011;42052;41.634;-0.946;2023-03-20T07:11:11;1.20;;;0.68;;
56171;SDS011;42052;41.634;-0.946;2023-03-20T07:13:57;0.80;;;0.70;;
56171;SDS011;42052;41.634;-0.946;2023-03-20T07:16:44;1.40;;;0.90;;
56171;SDS011;42052;41.634;-0.946;2023-03-20T07:19:30;0.68;;;0.63;;
56171;SDS011;42052;41.634;-0.946;2023-03-20T07:22:20;1.17;;;0.77;;
56171;SDS011;42052;41.634;-0.946;2023-03-20T07:25:08;0.80;;;0.77;;
56171;SDS011;42052;41.634;-0.946;2023-03-20T07:27:55;0.93;;;0.70;;
56171;SDS011;42052;41.634;-0.946;2023-03-20T07:30:41;1.33;;;0.90;;
56171;SDS011;42052;41.634;-0.946;2023-03-20T07:33:27;0.70;;;0.63;;
56171;SDS011;42052;41.634;-0.946;2023-03-20T07:36:13;0.80;;;0.80;;
56171;SDS011;42052;41.634;-0.946;2023-03-20T07:38:59;1.48;;;0.80;;
56171;SDS011;42052;41.634;-0.946;2023-03-20T07:41:45;1.35;;;0.77;;
56171;SDS011;42052;41.634;-0.946;2023-03-20T07:44:32;1.30;;;0.90;;
56171;SDS011;42052;41.634;-0.946;2023-03-20T07:47:18;1.10;;;0.88;;
56171;SDS011;42052;41.634;-0.946;2023-03-20T07:50:04;0.88;;;0.70;;
56171;SDS011;42052;41.634;-0.946;2023-03-20T07:52:51;1.45;;;0.95;;
56171;SDS011;42052;41.634;-0.946;2023-03-20T07:55:37;1.23;;;0.80;;
56171;SDS011;42052;41.634;-0.946;2023-03-20T07:58:23;1.73;;;1.00;;
56171;SDS011;42052;41.634;-0.946;2023-03-20T08:01:09;1.20;;;0.75;;
56171;SDS011;42052;41.634;-0.946;2023-03-20T08:03:55;3.58;;;1.00;;
56171;SDS011;42052;41.634;-0.946;2023-03-20T08:06:42;1.67;;;0.90;;
56171;SDS011;42052;41.634;-0.946;2023-03-20T08:09:28;1.73;;;1.10;;
56171;SDS011;42052;41.634;-0.946;2023-03-20T08:12:14;1.35;;;0.82;;
56171;SDS011;42052;41.634;-0.946;2023-03-20T08:15:01;1.85;;;1.00;;
56171;SDS011;42052;41.634;-0.946;2023-03-20T08:17:47;0.93;;;0.77;;
56171;SDS011;42052;41.634;-0.946;2023-03-20T08:20:33;1.73;;;0.95;;
56171;SDS011;42052;41.634;-0.946;2023-03-20T08:23:20;0.68;;;0.60;;
56171;SDS011;42052;41.634;-0.946;2023-03-20T08:26:06;1.02;;;0.70;;
56171;SDS011;42052;41.634;-0.946;2023-03-20T08:28:53;0.80;;;0.80;;
56171;SDS011;42052;41.634;-0.946;2023-03-20T08:31:39;1.20;;;1.00;;
56171;SDS011;42052;41.634;-0.946;2023-03-20T08:34:25;1.90;;;1.20;;
56171;SDS011;42052;41.634;-0.946;2023-03-20T08:37:11;1.33;;;0.80;;
56171;SDS011;42052;41.634;-0.946;2023-03-20T08:39:58;2.20;;;1.25;;
56171;SDS011;42052;41.634;-0.946;2023-03-20T08:42:44;2.08;;;1.00;;
56171;SDS011;42052;41.634;-0.946;2023-03-20T08:45:31;3.70;;;1.08;;
56171;SDS011;42052;41.634;-0.946;2023-03-20T08:48:17;1.75;;;1.08;;
56171;SDS011;42052;41.634;-0.946;2023-03-20T08:51:03;1.42;;;1.00;;
56171;SDS011;42052;41.634;-0.946;2023-03-20T08:53:50;1.17;;;1.00;;
56171;SDS011;42052;41.634;-0.946;2023-03-20T08:56:36;2.00;;;1.40;;
56171;SDS011;42052;41.634;-0.946;2023-03-20T08:59:22;1.58;;;1.00;;
56171;SDS011;42052;41.634;-0.946;2023-03-20T09:02:09;2.03;;;1.08;;
56171;SDS011;42052;41.634;-0.946;2023-03-20T09:04:56;2.20;;;1.20;;
56171;SDS011;42052;41.634;-0.946;2023-03-20T09:07:43;1.85;;;1.33;;
56171;SDS011;42052;41.634;-0.946;2023-03-20T09:10:29;2.13;;;1.20;;
56171;SDS011;42052;41.634;-0.946;2023-03-20T09:13:16;1.60;;;1.00;;
56171;SDS011;42052;41.634;-0.946;2023-03-20T09:16:02;1.60;;;1.10;;
56171;SDS011;42052;41.634;-0.946;2023-03-20T09:18:48;1.27;;;1.00;;
56171;SDS011;42052;41.634;-0.946;2023-03-20T09:21:34;2.28;;;1.10;;
56171;SDS011;42052;41.634;-0.946;2023-03-20T09:24:21;1.55;;;0.90;;
56171;SDS011;42052;41.634;-0.946;2023-03-20T09:27:07;1.67;;;1.02;;
56171;SDS011;42052;41.634;-0.946;2023-03-20T09:29:54;1.23;;;0.95;;
56171;SDS011;42052;41.634;-0.946;2023-03-20T09:32:40;1.00;;;0.80;;
56171;SDS011;42052;41.634;-0.946;2023-03-20T09:35:27;1.73;;;1.00;;
56171;SDS011;42052;41.634;-0.946;2023-03-20T09:38:13;2.30;;;1.17;;
56171;SDS011;42052;41.634;-0.946;2023-03-20T09:41:00;1.50;;;1.00;;
56171;SDS011;42052;41.634;-0.946;2023-03-20T09:43:54;1.60;;;1.00;;
56171;SDS011;42052;41.634;-0.946;2023-03-20T09:55:57;2.38;;;1.08;;
56171;SDS011;42052;41.634;-0.946;2023-03-20T09:58:46;1.10;;;0.80;;
56171;SDS011;42052;41.634;-0.946;2023-03-20T10:04:32;0.95;;;0.85;;
56171;SDS011;42052;41.634;-0.946;2023-03-20T10:07:21;1.20;;;1.00;;
56171;SDS011;42052;41.634;-0.946;2023-03-20T10:10:08;1.33;;;0.80;;
56171;SDS011;42052;41.634;-0.946;2023-03-20T10:13:13;0.90;;;0.80;;
56171;SDS011;42052;41.634;-0.946;2023-03-20T10:16:14;1.40;;;0.85;;
56171;SDS011;42052;41.634;-0.946;2023-03-20T10:26:10;1.40;;;0.80;;
56171;SDS011;42052;41.634;-0.946;2023-03-20T10:28:59;1.10;;;0.80;;
56171;SDS011;42052;41.634;-0.946;2023-03-20T10:34:58;2.30;;;0.80;;
56171;SDS011;42052;41.634;-0.946;2023-03-20T10:41:15;1.30;;;0.80;;
56171;SDS011;42052;41.634;-0.946;2023-03-20T10:44:05;0.98;;;0.80;;
56171;SDS011;42052;41.634;-0.946;2023-03-20T10:47:00;1.42;;;0.90;;
56171;SDS011;42052;41.634;-0.946;2023-03-20T10:49:53;1.13;;;0.98;;
56171;SDS011;42052;41.634;-0.946;2023-03-20T10:52:43;1.02;;;0.90;;
56171;SDS011;42052;41.634;-0.946;2023-03-20T10:55:39;1.50;;;0.80;;
56171;SDS011;42052;41.634;-0.946;2023-03-20T10:58:29;1.38;;;0.98;;
56171;SDS011;42052;41.634;-0.946;2023-03-20T11:01:19;0.95;;;0.80;;
56171;SDS011;42052;41.634;-0.946;2023-03-20T11:04:08;2.30;;;0.90;;
56171;SDS011;42052;41.634;-0.946;2023-03-20T11:12:51;0.95;;;0.80;;
56171;SDS011;42052;41.634;-0.946;2023-03-20T11:15:38;2.03;;;1.05;;
56171;SDS011;42052;41.634;-0.946;2023-03-20T11:18:25;1.75;;;1.05;;
56171;SDS011;42052;41.634;-0.946;2023-03-20T11:21:24;1.40;;;1.15;;
56171;SDS011;42052;41.634;-0.946;2023-03-20T11:27:40;1.80;;;1.20;;
56171;SDS011;42052;41.634;-0.946;2023-03-20T11:30:27;1.77;;;1.10;;
56171;SDS011;42052;41.634;-0.946;2023-03-20T11:33:13;1.63;;;1.25;;
56171;SDS011;42052;41.634;-0.946;2023-03-20T11:36:00;1.15;;;1.00;;
56171;SDS011;42052;41.634;-0.946;2023-03-20T11:38:47;1.40;;;1.00;;
56171;SDS011;42052;41.634;-0.946;2023-03-20T11:41:35;1.63;;;1.10;;
56171;SDS011;42052;41.634;-0.946;2023-03-20T11:44:36;1.15;;;0.95;;
56171;SDS011;42052;41.634;-0.946;2023-03-20T11:47:24;1.10;;;1.00;;
56171;SDS011;42052;41.634;-0.946;2023-03-20T11:50:31;1.55;;;1.13;;
56171;SDS011;42052;41.634;-0.946;2023-03-20T11:53:38;1.73;;;1.25;;
56171;SDS011;42052;41.634;-0.946;2023-03-20T11:56:32;1.70;;;1.23;;
56171;SDS011;42052;41.634;-0.946;2023-03-20T11:59:20;1.58;;;1.00;;
56171;SDS011;42052;41.634;-0.946;2023-03-20T12:02:16;1.42;;;1.20;;
56171;SDS011;42052;41.634;-0.946;2023-03-20T12:05:17;1.70;;;1.20;;
56171;SDS011;42052;41.634;-0.946;2023-03-20T12:08:19;1.40;;;1.02;;
56171;SDS011;42052;41.634;-0.946;2023-03-20T12:14:22;2.17;;;1.25;;
56171;SDS011;42052;41.634;-0.946;2023-03-20T12:17:24;1.67;;;1.20;;
56171;SDS011;42052;41.634;-0.946;2023-03-20T12:20:15;3.30;;;1.83;;
56171;SDS011;42052;41.634;-0.946;2023-03-20T12:23:22;3.08;;;1.90;;
56171;SDS011;42052;41.634;-0.946;2023-03-20T12:26:30;1.63;;;1.15;;
56171;SDS011;42052;41.634;-0.946;2023-03-20T12:29:49;1.90;;;1.15;;
56171;SDS011;42052;41.634;-0.946;2023-03-20T12:32:41;1.77;;;1.23;;
56171;SDS011;42052;41.634;-0.946;2023-03-20T12:35:30;2.78;;;1.50;;
56171;SDS011;42052;41.634;-0.946;2023-03-20T12:53:36;1.65;;;1.17;;
56171;SDS011;42052;41.634;-0.946;2023-03-20T12:57:05;1.75;;;1.30;;
56171;SDS011;42052;41.634;-0.946;2023-03-20T13:00:08;1.75;;;1.30;;
56171;SDS011;42052;41.634;-0.946;2023-03-20T13:21:03;2.22;;;1.17;;
56171;SDS011;42052;41.634;-0.946;2023-03-20T13:36:02;2.10;;;1.57;;
56171;SDS011;42052;41.634;-0.946;2023-03-20T13:42:16;1.48;;;1.20;;
56171;SDS011;42052;41.634;-0.946;2023-03-20T13:45:16;1.75;;;1.23;;
56171;SDS011;42052;41.634;-0.946;2023-03-20T14:03:36;2.25;;;1.42;;
56171;SDS011;42052;41.634;-0.946;2023-03-20T14:09:26;1.50;;;1.30;;
56171;SDS011;42052;41.634;-0.946;2023-03-20T14:12:21;2.33;;;1.60;;
56171;SDS011;42052;41.634;-0.946;2023-03-20T14:15:10;1.90;;;1.30;;
56171;SDS011;42052;41.634;-0.946;2023-03-20T14:17:56;1.73;;;1.30;;
56171;SDS011;42052;41.634;-0.946;2023-03-20T14:20:54;2.28;;;1.40;;
56171;SDS011;42052;41.634;-0.946;2023-03-20T14:23:49;2.20;;;1.48;;
56171;SDS011;42052;41.634;-0.946;2023-03-20T14:26:41;3.17;;;1.50;;
56171;SDS011;42052;41.634;-0.946;2023-03-20T14:29:33;2.33;;;1.42;;
56171;SDS011;42052;41.634;-0.946;2023-03-20T14:32:28;2.17;;;1.58;;
56171;SDS011;42052;41.634;-0.946;2023-03-20T14:35:21;1.70;;;1.40;;
56171;SDS011;42052;41.634;-0.946;2023-03-20T14:56:13;2.13;;;1.50;;
56171;SDS011;42052;41.634;-0.946;2023-03-20T14:59:01;2.45;;;1.77;;
56171;SDS011;42052;41.634;-0.946;2023-03-20T15:01:55;2.28;;;1.80;;
56171;SDS011;42052;41.634;-0.946;2023-03-20T15:04:46;2.58;;;1.80;;
56171;SDS011;42052;41.634;-0.946;2023-03-20T15:07:34;2.88;;;1.90;;
56171;SDS011;42052;41.634;-0.946;2023-03-20T15:10:25;2.22;;;1.60;;
56171;SDS011;42052;41.634;-0.946;2023-03-20T15:13:12;2.35;;;1.77;;
56171;SDS011;42052;41.634;-0.946;2023-03-20T15:16:04;2.85;;;1.92;;
56171;SDS011;42052;41.634;-0.946;2023-03-20T15:18:53;2.63;;;1.88;;
56171;SDS011;42052;41.634;-0.946;2023-03-20T15:21:40;2.17;;;1.90;;
56171;SDS011;42052;41.634;-0.946;2023-03-20T15:24:28;2.58;;;1.80;;
56171;SDS011;42052;41.634;-0.946;2023-03-20T15:27:15;1.90;;;1.70;;
56171;SDS011;42052;41.634;-0.946;2023-03-20T15:30:01;2.83;;;1.95;;
56171;SDS011;42052;41.634;-0.946;2023-03-20T15:32:48;2.38;;;1.88;;
56171;SDS011;42052;41.634;-0.946;2023-03-20T15:35:37;2.38;;;1.63;;
56171;SDS011;42052;41.634;-0.946;2023-03-20T15:38:25;2.45;;;1.83;;
56171;SDS011;42052;41.634;-0.946;2023-03-20T15:41:23;2.55;;;1.98;;
56171;SDS011;42052;41.634;-0.946;2023-03-20T15:44:20;2.83;;;2.08;;
56171;SDS011;42052;41.634;-0.946;2023-03-20T15:50:04;2.63;;;1.90;;
56171;SDS011;42052;41.634;-0.946;2023-03-20T15:52:57;2.50;;;2.10;;
56171;SDS011;42052;41.634;-0.946;2023-03-20T15:55:52;2.72;;;1.98;;
56171;SDS011;42052;41.634;-0.946;2023-03-20T15:58:51;2.30;;;1.75;;
56171;SDS011;42052;41.634;-0.946;2023-03-20T16:01:40;2.58;;;1.92;;
56171;SDS011;42052;41.634;-0.946;2023-03-20T16:04:27;2.67;;;1.90;;
56171;SDS011;42052;41.634;-0.946;2023-03-20T16:07:20;2.17;;;1.90;;
56171;SDS011;42052;41.634;-0.946;2023-03-20T16:10:30;2.90;;;2.30;;
56171;SDS011;42052;41.634;-0.946;2023-03-20T16:13:22;3.10;;;2.40;;
56171;SDS011;42052;41.634;-0.946;2023-03-20T16:16:10;2.33;;;2.08;;
56171;SDS011;42052;41.634;-0.946;2023-03-20T16:19:00;2.60;;;2.00;;
56171;SDS011;42052;41.634;-0.946;2023-03-20T16:21:49;2.58;;;2.10;;
56171;SDS011;42052;41.634;-0.946;2023-03-20T16:24:44;2.45;;;1.92;;
56171;SDS011;42052;41.634;-0.946;2023-03-20T16:27:33;2.55;;;2.10;;
56171;SDS011;42052;41.634;-0.946;2023-03-20T16:30:29;2.97;;;2.13;;
56171;SDS011;42052;41.634;-0.946;2023-03-20T16:33:16;3.15;;;2.45;;
56171;SDS011;42052;41.634;-0.946;2023-03-20T16:36:03;2.70;;;2.20;;
56171;SDS011;42052;41.634;-0.946;2023-03-20T16:38:53;3.38;;;2.38;;
56171;SDS011;42052;41.634;-0.946;2023-03-20T16:45:07;3.65;;;2.50;;
56171;SDS011;42052;41.634;-0.946;2023-03-20T16:51:07;3.58;;;2.70;;
56171;SDS011;42052;41.634;-0.946;2023-03-20T16:54:12;5.00;;;3.22;;
56171;SDS011;42052;41.634;-0.946;2023-03-20T16:57:07;3.90;;;2.90;;
56171;SDS011;42052;41.634;-0.946;2023-03-20T17:00:07;4.65;;;3.15;;
56171;SDS011;42052;41.634;-0.946;2023-03-20T17:03:14;4.13;;;3.15;;
56171;SDS011;42052;41.634;-0.946;2023-03-20T17:12:04;4.43;;;3.30;;
56171;SDS011;42052;41.634;-0.946;2023-03-20T17:14:58;5.30;;;3.63;;
56171;SDS011;42052;41.634;-0.946;2023-03-20T17:17:44;4.65;;;3.92;;
56171;SDS011;42052;41.634;-0.946;2023-03-20T17:20:30;5.90;;;3.60;;
56171;SDS011;42052;41.634;-0.946;2023-03-20T17:23:18;5.53;;;4.07;;
56171;SDS011;42052;41.634;-0.946;2023-03-20T17:26:08;5.97;;;4.20;;
56171;SDS011;42052;41.634;-0.946;2023-03-20T17:28:57;5.38;;;3.47;;
56171;SDS011;42052;41.634;-0.946;2023-03-20T17:31:43;6.55;;;4.20;;
56171;SDS011;42052;41.634;-0.946;2023-03-20T17:34:30;6.18;;;3.95;;
56171;SDS011;42052;41.634;-0.946;2023-03-20T17:37:19;5.90;;;3.95;;
56171;SDS011;42052;41.634;-0.946;2023-03-20T17:40:15;6.18;;;4.38;;
56171;SDS011;42052;41.634;-0.946;2023-03-20T17:43:04;5.85;;;4.50;;
56171;SDS011;42052;41.634;-0.946;2023-03-20T17:45:55;6.70;;;4.60;;
56171;SDS011;42052;41.634;-0.946;2023-03-20T17:48:43;6.20;;;4.22;;
56171;SDS011;42052;41.634;-0.946;2023-03-20T17:51:30;6.82;;;4.72;;
56171;SDS011;42052;41.634;-0.946;2023-03-20T17:54:17;7.22;;;4.22;;
56171;SDS011;42052;41.634;-0.946;2023-03-20T17:57:03;6.03;;;4.40;;
56171;SDS011;42052;41.634;-0.946;2023-03-20T17:59:50;7.90;;;4.47;;
56171;SDS011;42052;41.634;-0.946;2023-03-20T18:02:36;6.03;;;4.55;;
56171;SDS011;42052;41.634;-0.946;2023-03-20T18:05:22;6.03;;;4.30;;
56171;SDS011;42052;41.634;-0.946;2023-03-20T18:08:13;6.22;;;4.55;;
56171;SDS011;42052;41.634;-0.946;2023-03-20T18:11:01;6.82;;;4.85;;
56171;SDS011;42052;41.634;-0.946;2023-03-20T18:13:48;6.22;;;4.60;;
56171;SDS011;42052;41.634;-0.946;2023-03-20T18:16:34;5.85;;;4.75;;
56171;SDS011;42052;41.634;-0.946;2023-03-20T18:19:22;5.82;;;4.30;;
56171;SDS011;42052;41.634;-0.946;2023-03-20T18:22:10;7.25;;;4.82;;
56171;SDS011;42052;41.634;-0.946;2023-03-20T18:24:57;7.05;;;4.72;;
56171;SDS011;42052;41.634;-0.946;2023-03-20T18:27:43;6.13;;;4.65;;
56171;SDS011;42052;41.634;-0.946;2023-03-20T18:30:31;6.68;;;4.80;;
56171;SDS011;42052;41.634;-0.946;2023-03-20T18:33:19;6.15;;;4.55;;
56171;SDS011;42052;41.634;-0.946;2023-03-20T18:36:14;7.82;;;4.90;;
56171;SDS011;42052;41.634;-0.946;2023-03-20T18:39:03;9.20;;;5.78;;
56171;SDS011;42052;41.634;-0.946;2023-03-20T18:41:50;5.68;;;4.25;;
56171;SDS011;42052;41.634;-0.946;2023-03-20T18:44:36;7.93;;;4.78;;
56171;SDS011;42052;41.634;-0.946;2023-03-20T18:47:22;6.60;;;4.50;;
56171;SDS011;42052;41.634;-0.946;2023-03-20T18:50:16;6.18;;;4.38;;
56171;SDS011;42052;41.634;-0.946;2023-03-20T18:53:07;8.70;;;5.68;;
56171;SDS011;42052;41.634;-0.946;2023-03-20T18:55:55;7.93;;;5.13;;
56171;SDS011;42052;41.634;-0.946;2023-03-20T18:58:41;7.43;;;4.75;;
56171;SDS011;42052;41.634;-0.946;2023-03-20T19:01:28;6.28;;;4.10;;
56171;SDS011;42052;41.634;-0.946;2023-03-20T19:04:14;7.40;;;4.25;;
56171;SDS011;42052;41.634;-0.946;2023-03-20T19:07:00;5.38;;;4.05;;
56171;SDS011;42052;41.634;-0.946;2023-03-20T19:09:46;5.50;;;4.13;;
56171;SDS011;42052;41.634;-0.946;2023-03-20T19:12:32;4.93;;;3.88;;
56171;SDS011;42052;41.634;-0.946;2023-03-20T19:15:20;7.05;;;4.60;;
56171;SDS011;42052;41.634;-0.946;2023-03-20T19:18:16;5.90;;;3.80;;
56171;SDS011;42052;41.634;-0.946;2023-03-20T19:21:07;6.68;;;4.18;;
56171;SDS011;42052;41.634;-0.946;2023-03-20T19:23:54;6.72;;;4.00;;
56171;SDS011;42052;41.634;-0.946;2023-03-20T19:26:41;6.38;;;4.20;;
56171;SDS011;42052;41.634;-0.946;2023-03-20T19:29:27;6.30;;;4.30;;
56171;SDS011;42052;41.634;-0.946;2023-03-20T19:32:13;7.78;;;4.60;;
56171;SDS011;42052;41.634;-0.946;2023-03-20T19:34:59;6.20;;;4.15;;